createdAt,value
2018-09-14T00:00:41.843Z,10.18
2018-09-14T00:01:50.751Z,10.23
2018-09-14T00:02:59.388Z,10.13
2018-09-14T00:04:08.295Z,10.24
2018-09-14T00:05:16.943Z,10.17
2018-09-14T00:06:25.581Z,10.21
2018-09-14T00:07:34.224Z,10.18
2018-09-14T00:08:42.852Z,10.2
2018-09-14T00:09:51.768Z,10.18
2018-09-14T00:11:00.666Z,10.17
2018-09-14T00:12:09.312Z,10.17
2018-09-14T00:13:17.944Z,10.18
2018-09-14T00:14:26.593Z,10.2
2018-09-14T00:15:35.234Z,10.2
2018-09-14T00:16:43.875Z,10.17
2018-09-14T00:17:52.768Z,10.17
2018-09-14T00:19:01.412Z,10.2
2018-09-14T00:20:10.325Z,10.2
2018-09-14T00:21:18.969Z,10.23
2018-09-14T00:22:27.621Z,10.1
2018-09-14T00:23:36.252Z,10.09
2018-09-14T00:24:44.898Z,10.12
2018-09-14T00:25:53.535Z,10.09
2018-09-14T00:27:02.451Z,10.05
2018-09-14T00:28:11.085Z,10.07
2018-09-14T00:29:19.727Z,10.05
2018-09-14T00:30:28.628Z,9.99
2018-09-14T00:31:37.276Z,10.05
2018-09-14T00:32:45.912Z,9.9
2018-09-14T00:33:54.868Z,9.99
2018-09-14T00:35:03.462Z,9.95
2018-09-14T00:36:12.110Z,10.06
2018-09-14T00:37:21.026Z,9.95
2018-09-14T00:38:29.663Z,10.03
2018-09-14T00:39:38.303Z,10.03
2018-09-14T00:40:46.945Z,9.92
2018-09-14T00:41:55.592Z,10
2018-09-14T00:43:04.227Z,10
2018-09-14T00:44:12.874Z,9.95
2018-09-14T00:45:21.508Z,9.95
2018-09-14T00:46:30.420Z,9.95
2018-09-14T00:47:39.060Z,9.9
2018-09-14T00:48:47.967Z,9.91
2018-09-14T00:49:56.598Z,9.88
2018-09-14T00:51:05.248Z,9.85
2018-09-14T00:52:13.888Z,9.85
2018-09-14T00:53:22.530Z,9.84
2018-09-14T00:54:31.163Z,9.85
2018-09-14T00:55:39.807Z,9.81
2018-09-14T00:56:48.456Z,9.87
2018-09-14T00:57:57.095Z,9.88
2018-09-14T00:59:05.737Z,9.74
2018-09-14T01:00:14.366Z,9.82
2018-09-14T01:01:23.274Z,9.72
2018-09-14T01:02:31.913Z,9.69
2018-09-14T01:03:40.560Z,9.74
2018-09-14T01:04:49.455Z,9.81
2018-09-14T01:05:58.097Z,9.8
2018-09-14T01:07:06.743Z,9.77
2018-09-14T01:08:15.388Z,9.76
2018-09-14T01:09:24.022Z,9.74
2018-09-14T01:10:32.930Z,9.73
2018-09-14T01:11:41.573Z,9.82
2018-09-14T01:12:50.217Z,9.73
2018-09-14T01:13:58.856Z,9.73
2018-09-14T01:15:07.755Z,9.69
2018-09-14T01:16:16.408Z,9.64
2018-09-14T01:17:25.307Z,9.62
2018-09-14T01:18:33.952Z,9.59
2018-09-14T01:19:42.595Z,9.63
2018-09-14T01:20:51.503Z,9.59
2018-09-14T01:22:00.411Z,9.55
2018-09-14T01:23:09.053Z,9.62
2018-09-14T01:24:17.957Z,9.59
2018-09-14T01:25:26.609Z,9.58
2018-09-14T01:26:35.238Z,9.62
2018-09-14T01:27:43.884Z,9.59
2018-09-14T01:28:52.524Z,9.62
2018-09-14T01:30:01.167Z,9.62
2018-09-14T01:31:10.328Z,9.58
2018-09-14T01:32:18.973Z,9.58
2018-09-14T01:33:27.615Z,9.62
2018-09-14T01:34:36.256Z,9.52
2018-09-14T01:35:44.898Z,9.54
2018-09-14T01:36:53.800Z,9.55
2018-09-14T01:38:02.442Z,9.51
2018-09-14T01:39:11.085Z,9.52
2018-09-14T01:40:19.726Z,9.49
2018-09-14T01:41:28.362Z,9.51
2018-09-14T01:42:37.000Z,9.45
2018-09-14T01:43:45.640Z,9.47
2018-09-14T01:44:54.560Z,9.47
2018-09-14T01:46:03.194Z,9.42
2018-09-14T01:47:11.838Z,9.47
2018-09-14T01:48:20.739Z,9.44
2018-09-14T01:49:29.384Z,9.51
2018-09-14T01:50:38.027Z,9.47
2018-09-14T01:51:46.927Z,9.42
2018-09-14T01:52:55.830Z,9.45
2018-09-14T01:54:04.740Z,9.42
2018-09-14T01:55:13.385Z,9.4
2018-09-14T01:56:22.027Z,9.45
2018-09-14T01:57:30.941Z,9.44
2018-09-14T01:58:39.836Z,9.47
2018-09-14T01:59:48.483Z,9.4
2018-09-14T02:00:57.119Z,9.44
2018-09-14T02:02:05.766Z,9.44
2018-09-14T02:03:14.419Z,9.48
2018-09-14T02:04:23.047Z,9.4
2018-09-14T02:05:31.690Z,9.45
2018-09-14T02:06:40.596Z,9.4
2018-09-14T02:07:49.229Z,9.44
2018-09-14T02:08:57.871Z,9.42
2018-09-14T02:10:06.517Z,9.42
2018-09-14T02:11:15.164Z,9.47
2018-09-14T02:12:23.808Z,9.37
2018-09-14T02:13:32.438Z,9.36
2018-09-14T02:14:41.082Z,9.34
2018-09-14T02:15:49.721Z,9.34
2018-09-14T02:16:58.370Z,9.33
2018-09-14T02:18:07.000Z,9.33
2018-09-14T02:19:15.645Z,9.34
2018-09-14T02:20:24.281Z,9.33
2018-09-14T02:21:32.927Z,9.39
2018-09-14T02:22:41.558Z,9.31
2018-09-14T02:23:50.198Z,9.33
2018-09-14T02:24:58.837Z,9.31
2018-09-14T02:26:07.487Z,9.27
2018-09-14T02:27:16.125Z,9.24
2018-09-14T02:28:24.762Z,9.22
2018-09-14T02:29:33.929Z,9.31
2018-09-14T02:30:42.567Z,9.12
2018-09-14T02:31:51.506Z,9.22
2018-09-14T02:33:00.146Z,9.22
2018-09-14T02:34:08.794Z,9.18
2018-09-14T02:35:17.427Z,9.24
2018-09-14T02:36:26.349Z,9.22
2018-09-14T02:37:35.248Z,9.11
2018-09-14T02:38:43.891Z,9.08
2018-09-14T02:39:52.524Z,9.09
2018-09-14T02:41:01.189Z,9.09
2018-09-14T02:42:09.814Z,9.09
2018-09-14T02:43:18.456Z,9
2018-09-14T02:44:27.087Z,9
2018-09-14T02:45:35.729Z,9.02
2018-09-14T02:46:44.376Z,9.03
2018-09-14T02:47:53.566Z,8.99
2018-09-14T02:49:02.211Z,8.93
2018-09-14T02:50:10.850Z,8.97
2018-09-14T02:51:19.774Z,8.89
2018-09-14T02:52:28.420Z,8.99
2018-09-14T02:53:37.340Z,8.87
2018-09-14T02:54:45.967Z,8.95
2018-09-14T02:55:54.612Z,8.93
2018-09-14T02:57:03.250Z,8.89
2018-09-14T02:58:12.159Z,8.9
2018-09-14T02:59:20.807Z,8.87
2018-09-14T03:00:29.712Z,8.95
2018-09-14T03:01:38.622Z,8.9
2018-09-14T03:02:47.252Z,8.87
2018-09-14T03:03:55.897Z,8.87
2018-09-14T03:05:04.542Z,8.92
2018-09-14T03:06:13.185Z,8.87
2018-09-14T03:07:22.353Z,8.84
2018-09-14T03:08:30.984Z,8.81
2018-09-14T03:09:39.632Z,8.87
2018-09-14T03:10:48.545Z,8.79
2018-09-14T03:11:57.199Z,8.84
2018-09-14T03:13:05.835Z,8.89
2018-09-14T03:14:14.487Z,8.82
2018-09-14T03:15:23.123Z,8.81
2018-09-14T03:16:31.773Z,8.78
2018-09-14T03:17:40.412Z,8.74
2018-09-14T03:18:49.586Z,8.74
2018-09-14T03:19:58.222Z,8.75
2018-09-14T03:21:06.870Z,8.74
2018-09-14T03:22:15.508Z,8.71
2018-09-14T03:23:24.143Z,8.79
2018-09-14T03:24:32.781Z,8.72
2018-09-14T03:25:41.682Z,8.66
2018-09-14T03:26:50.342Z,8.61
2018-09-14T03:27:58.969Z,8.75
2018-09-14T03:29:07.617Z,8.63
2018-09-14T03:30:16.518Z,8.66
2018-09-14T03:31:25.437Z,8.59
2018-09-14T03:32:34.092Z,8.6
2018-09-14T03:33:42.720Z,8.64
2018-09-14T03:34:51.358Z,8.64
2018-09-14T03:36:00.277Z,8.63
2018-09-14T03:37:08.918Z,8.59
2018-09-14T03:38:17.560Z,8.57
2018-09-14T03:39:26.646Z,8.57
2018-09-14T03:40:35.202Z,8.63
2018-09-14T03:41:44.118Z,8.59
2018-09-14T03:42:52.762Z,8.52
2018-09-14T03:44:01.404Z,8.54
2018-09-14T03:45:10.041Z,8.59
2018-09-14T03:46:18.955Z,8.54
2018-09-14T03:47:27.864Z,8.56
2018-09-14T03:48:36.785Z,8.57
2018-09-14T03:49:45.417Z,8.53
2018-09-14T03:50:54.063Z,8.53
2018-09-14T03:52:02.706Z,8.44
2018-09-14T03:53:11.356Z,8.49
2018-09-14T03:54:19.987Z,8.45
2018-09-14T03:55:28.630Z,8.45
2018-09-14T03:56:37.271Z,8.42
2018-09-14T03:57:45.915Z,8.42
2018-09-14T03:58:54.551Z,8.42
2018-09-14T04:00:03.463Z,8.46
2018-09-14T04:01:12.100Z,8.38
2018-09-14T04:02:20.739Z,8.39
2018-09-14T04:03:29.383Z,8.35
2018-09-14T04:04:38.024Z,8.42
2018-09-14T04:05:46.662Z,8.39
2018-09-14T04:06:55.561Z,8.39
2018-09-14T04:08:04.216Z,8.36
2018-09-14T04:09:13.119Z,8.31
2018-09-14T04:10:22.020Z,8.31
2018-09-14T04:11:30.656Z,8.31
2018-09-14T04:12:39.565Z,8.32
2018-09-14T04:13:48.212Z,8.32
2018-09-14T04:14:56.851Z,8.34
2018-09-14T04:16:05.758Z,8.34
2018-09-14T04:17:14.400Z,8.31
2018-09-14T04:18:23.259Z,8.28
2018-09-14T04:19:31.887Z,8.31
2018-09-14T04:20:40.793Z,8.34
2018-09-14T04:21:49.431Z,8.26
2018-09-14T04:22:58.326Z,8.31
2018-09-14T04:24:06.964Z,8.28
2018-09-14T04:25:15.880Z,8.26
2018-09-14T04:26:24.515Z,8.21
2018-09-14T04:27:33.155Z,8.2
2018-09-14T04:28:41.795Z,8.27
2018-09-14T04:29:50.439Z,8.32
2018-09-14T04:30:59.075Z,8.18
2018-09-14T04:32:07.987Z,8.17
2018-09-14T04:33:16.894Z,8.17
2018-09-14T04:34:25.539Z,8.31
2018-09-14T04:35:34.178Z,8.21
2018-09-14T04:36:42.825Z,8.17
2018-09-14T04:37:51.726Z,8.17
2018-09-14T04:39:00.363Z,8.16
2018-09-14T04:40:09.014Z,8.13
2018-09-14T04:41:17.651Z,8.17
2018-09-14T04:42:26.291Z,8.16
2018-09-14T04:43:34.927Z,8.23
2018-09-14T04:44:43.574Z,8.11
2018-09-14T04:45:52.216Z,8.16
2018-09-14T04:47:00.855Z,8.16
2018-09-14T04:48:09.502Z,8.16
2018-09-14T04:49:18.402Z,8.17
2018-09-14T04:50:27.040Z,8.17
2018-09-14T04:51:35.685Z,8.24
2018-09-14T04:52:44.319Z,8.2
2018-09-14T04:53:52.960Z,8.14
2018-09-14T04:55:01.600Z,8.17
2018-09-14T04:56:10.246Z,8.14
2018-09-14T04:57:19.499Z,8.13
2018-09-14T04:58:28.685Z,8.23
2018-09-14T04:59:37.321Z,8.2
2018-09-14T05:00:45.960Z,8.16
2018-09-14T05:01:54.610Z,8.16
2018-09-14T05:03:03.536Z,8.13
2018-09-14T05:04:12.156Z,8.06
2018-09-14T05:05:21.058Z,8.05
2018-09-14T05:06:29.961Z,8.05
2018-09-14T05:07:38.630Z,8.05
2018-09-14T05:08:47.238Z,8.05
2018-09-14T05:09:55.876Z,8.03
2018-09-14T05:11:04.521Z,8.13
2018-09-14T05:12:13.162Z,8.05
2018-09-14T05:13:21.802Z,8.17
2018-09-14T05:14:30.439Z,8.16
2018-09-14T05:15:39.077Z,8.14
2018-09-14T05:16:47.721Z,8.16
2018-09-14T05:17:56.362Z,8.13
2018-09-14T05:19:05.001Z,8.18
2018-09-14T05:20:13.636Z,8.17
2018-09-14T05:21:22.548Z,8.17
2018-09-14T05:22:31.198Z,8.14
2018-09-14T05:23:39.845Z,8.24
2018-09-14T05:24:48.473Z,8.16
2018-09-14T05:25:57.117Z,8.21
2018-09-14T05:27:05.753Z,8.16
2018-09-14T05:28:14.395Z,8.24
2018-09-14T05:29:23.030Z,8.23
2018-09-14T05:30:31.679Z,8.23
2018-09-14T05:31:40.581Z,8.27
2018-09-14T05:32:49.222Z,8.27
2018-09-14T05:33:57.866Z,8.28
2018-09-14T05:35:06.496Z,8.31
2018-09-14T05:36:15.135Z,8.31
2018-09-14T05:37:24.047Z,8.28
2018-09-14T05:38:32.695Z,8.27
2018-09-14T05:39:41.329Z,8.35
2018-09-14T05:40:49.970Z,8.28
2018-09-14T05:41:58.612Z,8.35
2018-09-14T05:43:07.256Z,8.35
2018-09-14T05:44:15.890Z,8.41
2018-09-14T05:45:24.528Z,8.39
2018-09-14T05:46:33.164Z,8.36
2018-09-14T05:47:41.808Z,8.39
2018-09-14T05:48:50.451Z,8.38
2018-09-14T05:49:59.090Z,8.45
2018-09-14T05:51:07.728Z,8.41
2018-09-14T05:52:16.667Z,8.42
2018-09-14T05:53:25.317Z,8.49
2018-09-14T05:54:34.374Z,8.54
2018-09-14T05:55:42.960Z,8.56
2018-09-14T05:56:51.590Z,8.56
2018-09-14T05:58:00.234Z,8.59
2018-09-14T05:59:08.876Z,8.56
2018-09-14T06:00:17.791Z,8.63
2018-09-14T06:01:26.422Z,8.64
2018-09-14T06:02:35.072Z,8.66
2018-09-14T06:03:43.710Z,8.69
2018-09-14T06:04:52.353Z,8.72
2018-09-14T06:06:00.988Z,8.68
2018-09-14T06:07:09.629Z,8.69
2018-09-14T06:08:18.275Z,8.78
2018-09-14T06:09:26.924Z,8.84
2018-09-14T06:10:35.559Z,8.78
2018-09-14T06:11:44.192Z,8.82
2018-09-14T06:12:52.838Z,8.9
2018-09-14T06:14:01.474Z,8.9
2018-09-14T06:15:10.126Z,8.92
2018-09-14T06:16:18.757Z,8.97
2018-09-14T06:17:27.402Z,8.97
2018-09-14T06:18:36.038Z,9.09
2018-09-14T06:19:44.957Z,9.12
2018-09-14T06:20:53.587Z,9.08
2018-09-14T06:22:02.545Z,9.22
2018-09-14T06:23:11.466Z,9.21
2018-09-14T06:24:20.114Z,9.18
2018-09-14T06:25:28.757Z,9.33
2018-09-14T06:26:37.390Z,9.27
2018-09-14T06:27:46.028Z,9.33
2018-09-14T06:28:54.665Z,9.31
2018-09-14T06:30:03.316Z,9.34
2018-09-14T06:31:11.952Z,9.48
2018-09-14T06:32:20.857Z,9.49
2018-09-14T06:33:29.487Z,9.47
2018-09-14T06:34:38.137Z,9.52
2018-09-14T06:35:46.772Z,9.55
2018-09-14T06:36:55.419Z,9.52
2018-09-14T06:38:04.072Z,9.58
2018-09-14T06:39:12.705Z,9.69
2018-09-14T06:40:21.344Z,9.67
2018-09-14T06:41:29.987Z,9.74
2018-09-14T06:42:38.617Z,9.84
2018-09-14T06:43:47.259Z,9.87
2018-09-14T06:44:55.915Z,9.92
2018-09-14T06:46:04.922Z,10
2018-09-14T06:47:13.833Z,9.94
2018-09-14T06:48:22.471Z,9.99
2018-09-14T06:49:31.119Z,10.09
2018-09-14T06:50:39.757Z,10.15
2018-09-14T06:51:48.666Z,10.18
2018-09-14T06:52:57.430Z,10.23
2018-09-14T06:54:06.444Z,10.23
2018-09-14T06:55:15.148Z,10.36
2018-09-14T06:56:23.808Z,10.34
2018-09-14T06:57:32.755Z,10.34
2018-09-14T06:58:41.391Z,10.46
2018-09-14T06:59:50.034Z,10.48
2018-09-14T07:00:58.934Z,10.58
2018-09-14T07:02:07.577Z,10.58
2018-09-14T07:03:16.487Z,10.61
2018-09-14T07:04:25.398Z,10.68
2018-09-14T07:05:34.043Z,10.72
2018-09-14T07:06:42.934Z,10.8
2018-09-14T07:07:51.580Z,10.9
2018-09-14T07:09:00.219Z,10.94
2018-09-14T07:10:08.867Z,11
2018-09-14T07:11:17.499Z,11.01
2018-09-14T07:12:26.414Z,11.04
2018-09-14T07:13:35.052Z,11.13
2018-09-14T07:14:43.701Z,11.2
2018-09-14T07:15:52.333Z,11.23
2018-09-14T07:17:01.243Z,11.3
2018-09-14T07:18:10.144Z,11.34
2018-09-14T07:19:18.796Z,11.33
2018-09-14T07:20:27.695Z,11.52
2018-09-14T07:21:36.604Z,11.44
2018-09-14T07:22:45.245Z,11.53
2018-09-14T07:23:53.879Z,11.6
2018-09-14T07:25:02.537Z,11.6
2018-09-14T07:26:11.436Z,11.63
2018-09-14T07:27:20.084Z,11.71
2018-09-14T07:28:28.725Z,11.7
2018-09-14T07:29:37.769Z,11.81
2018-09-14T07:30:46.386Z,11.85
2018-09-14T07:31:55.422Z,11.95
2018-09-14T07:33:03.980Z,11.99
2018-09-14T07:34:12.636Z,12.03
2018-09-14T07:35:21.275Z,12.07
2018-09-14T07:36:30.265Z,12.03
2018-09-14T07:37:38.890Z,12.2
2018-09-14T07:38:47.536Z,12.12
2018-09-14T07:39:56.188Z,12.23
2018-09-14T07:41:04.831Z,12.12
2018-09-14T07:42:13.485Z,12.11
2018-09-14T07:43:22.115Z,12.17
2018-09-14T07:44:30.763Z,12.26
2018-09-14T07:45:39.660Z,12.37
2018-09-14T07:46:48.321Z,12.39
2018-09-14T07:47:56.954Z,12.4
2018-09-14T07:49:05.598Z,12.55
2018-09-14T07:50:14.236Z,12.5
2018-09-14T07:51:22.884Z,12.63
2018-09-14T07:52:31.521Z,12.63
2018-09-14T07:53:40.167Z,12.61
2018-09-14T07:54:49.072Z,12.73
2018-09-14T07:55:57.719Z,12.69
2018-09-14T07:57:06.358Z,12.8
2018-09-14T07:58:15.000Z,12.86
2018-09-14T07:59:23.635Z,12.95
2018-09-14T08:00:32.540Z,12.99
2018-09-14T08:01:41.186Z,12.99
2018-09-14T08:02:49.828Z,13.13
2018-09-14T08:03:58.472Z,13.12
2018-09-14T08:05:07.110Z,13.17
2018-09-14T08:06:15.835Z,13.23
2018-09-14T08:07:24.400Z,13.21
2018-09-14T08:08:33.043Z,13.31
2018-09-14T08:09:41.682Z,13.27
2018-09-14T08:10:50.332Z,13.28
2018-09-14T08:11:59.057Z,13.27
2018-09-14T08:13:07.917Z,13.43
2018-09-14T08:14:16.556Z,13.52
2018-09-14T08:15:25.199Z,13.6
2018-09-14T08:16:33.842Z,13.71
2018-09-14T08:17:42.490Z,13.68
2018-09-14T08:18:51.136Z,13.7
2018-09-14T08:20:00.094Z,13.76
2018-09-14T08:21:08.744Z,13.85
2018-09-14T08:22:17.699Z,13.86
2018-09-14T08:23:26.347Z,13.86
2018-09-14T08:24:34.985Z,13.8
2018-09-14T08:25:43.628Z,13.86
2018-09-14T08:26:52.626Z,13.95
2018-09-14T08:28:01.444Z,13.98
2018-09-14T08:29:10.083Z,14.01
2018-09-14T08:30:18.728Z,14.13
2018-09-14T08:31:27.371Z,14.07
2018-09-14T08:32:36.548Z,14.15
2018-09-14T08:33:45.188Z,14.22
2018-09-14T08:34:53.835Z,14.25
2018-09-14T08:36:02.476Z,14.28
2018-09-14T08:37:11.118Z,14.25
2018-09-14T08:38:19.767Z,14.37
2018-09-14T08:39:28.411Z,14.44
2018-09-14T08:40:37.053Z,14.44
2018-09-14T08:41:45.692Z,14.49
2018-09-14T08:42:54.342Z,14.52
2018-09-14T08:44:02.992Z,14.49
2018-09-14T08:45:11.632Z,14.62
2018-09-14T08:46:20.272Z,14.63
2018-09-14T08:47:28.921Z,14.7
2018-09-14T08:48:37.563Z,14.63
2018-09-14T08:49:46.207Z,14.74
2018-09-14T08:50:54.861Z,14.77
2018-09-14T08:52:03.510Z,14.85
2018-09-14T08:53:12.139Z,14.87
2018-09-14T08:54:20.779Z,14.93
2018-09-14T08:55:29.421Z,14.93
2018-09-14T08:56:38.073Z,14.96
2018-09-14T08:57:46.710Z,14.93
2018-09-14T08:58:55.357Z,15.02
2018-09-14T09:00:03.992Z,15.02
2018-09-14T09:01:12.916Z,15.02
2018-09-14T09:02:21.825Z,15.07
2018-09-14T09:03:30.473Z,15.11
2018-09-14T09:04:39.109Z,15.17
2018-09-14T09:05:47.763Z,15.1
2018-09-14T09:06:56.405Z,15.22
2018-09-14T09:08:05.053Z,15.29
2018-09-14T09:09:13.789Z,15.23
2018-09-14T09:10:22.790Z,15.27
2018-09-14T09:11:31.485Z,15.29
2018-09-14T09:12:40.353Z,15.33
2018-09-14T09:13:49.007Z,15.35
2018-09-14T09:14:57.634Z,15.35
2018-09-14T09:16:06.819Z,15.36
2018-09-14T09:17:15.460Z,15.47
2018-09-14T09:18:24.112Z,15.43
2018-09-14T09:19:33.132Z,15.51
2018-09-14T09:20:41.780Z,15.51
2018-09-14T09:21:50.420Z,15.54
2018-09-14T09:22:59.079Z,15.51
2018-09-14T09:24:07.981Z,15.63
2018-09-14T09:25:16.632Z,15.65
2018-09-14T09:26:25.281Z,15.63
2018-09-14T09:27:33.932Z,15.7
2018-09-14T09:28:42.573Z,15.72
2018-09-14T09:29:51.213Z,15.76
2018-09-14T09:31:00.110Z,15.81
2018-09-14T09:32:08.754Z,15.84
2018-09-14T09:33:17.411Z,15.9
2018-09-14T09:34:26.051Z,15.92
2018-09-14T09:35:34.701Z,15.92
2018-09-14T09:36:43.603Z,16.02
2018-09-14T09:37:52.259Z,16
2018-09-14T09:39:01.162Z,16.16
2018-09-14T09:40:09.812Z,16.18
2018-09-14T09:41:18.454Z,16.22
2018-09-14T09:42:27.369Z,16.21
2018-09-14T09:43:36.152Z,16.28
2018-09-14T09:44:45.180Z,16.22
2018-09-14T09:45:53.814Z,16.21
2018-09-14T09:47:02.462Z,16.26
2018-09-14T09:48:11.112Z,16.22
2018-09-14T09:49:19.758Z,16.31
2018-09-14T09:50:28.406Z,16.29
2018-09-14T09:51:37.046Z,16.31
2018-09-14T09:52:45.689Z,16.4
2018-09-14T09:53:54.334Z,16.4
2018-09-14T09:55:02.982Z,16.47
2018-09-14T09:56:11.622Z,16.58
2018-09-14T09:57:20.272Z,16.58
2018-09-14T09:58:28.921Z,16.65
2018-09-14T09:59:37.571Z,16.62
2018-09-14T10:00:46.215Z,16.65
2018-09-14T10:01:54.858Z,16.72
2018-09-14T10:03:03.502Z,16.59
2018-09-14T10:04:12.474Z,16.79
2018-09-14T10:05:21.060Z,16.73
2018-09-14T10:06:29.707Z,16.74
2018-09-14T10:07:38.350Z,16.8
2018-09-14T10:08:46.994Z,16.86
2018-09-14T10:09:55.646Z,16.8
2018-09-14T10:11:04.292Z,16.98
2018-09-14T10:12:13.262Z,16.95
2018-09-14T10:13:22.437Z,17.02
2018-09-14T10:14:31.284Z,17.2
2018-09-14T10:15:40.015Z,17.27
2018-09-14T10:16:49.272Z,17.28
2018-09-14T10:17:57.913Z,17.24
2018-09-14T10:19:06.561Z,17.39
2018-09-14T10:20:15.206Z,17.42
2018-09-14T10:21:23.928Z,17.54
2018-09-14T10:22:32.501Z,17.72
2018-09-14T10:23:41.468Z,17.8
2018-09-14T10:24:50.111Z,17.9
2018-09-14T10:25:59.029Z,18.05
2018-09-14T10:27:07.935Z,18.12
2018-09-14T10:28:16.578Z,18.13
2018-09-14T10:29:25.767Z,18.13
2018-09-14T10:30:34.406Z,18.24
2018-09-14T10:31:43.057Z,18.24
2018-09-14T10:32:51.699Z,18.28
2018-09-14T10:34:00.409Z,18.28
2018-09-14T10:35:09.046Z,18.28
2018-09-14T10:36:17.641Z,18.34
2018-09-14T10:37:26.281Z,18.34
2018-09-14T10:38:34.930Z,18.45
2018-09-14T10:39:43.589Z,18.43
2018-09-14T10:40:52.679Z,18.34
2018-09-14T10:42:01.593Z,18.39
2018-09-14T10:43:10.498Z,18.45
2018-09-14T10:44:19.143Z,18.3
2018-09-14T10:45:27.788Z,18.28
2018-09-14T10:46:36.437Z,18.27
2018-09-14T10:47:45.083Z,18.21
2018-09-14T10:48:53.786Z,18.13
2018-09-14T10:50:02.464Z,18.16
2018-09-14T10:51:11.032Z,18.21
2018-09-14T10:52:19.969Z,18.19
2018-09-14T10:53:28.849Z,18.06
2018-09-14T10:54:37.502Z,18.12
2018-09-14T10:55:46.405Z,18.08
2018-09-14T10:56:55.059Z,18.21
2018-09-14T10:58:03.703Z,18.13
2018-09-14T10:59:12.352Z,18.26
2018-09-14T11:00:21.002Z,18.31
2018-09-14T11:01:29.651Z,18.48
2018-09-14T11:02:38.556Z,18.51
2018-09-14T11:03:47.215Z,18.57
2018-09-14T11:04:56.128Z,18.78
2018-09-14T11:06:05.033Z,18.83
2018-09-14T11:07:13.680Z,19
2018-09-14T11:08:22.321Z,19.01
2018-09-14T11:09:30.971Z,19.08
2018-09-14T11:10:39.617Z,19.15
2018-09-14T11:11:48.529Z,19.26
2018-09-14T11:12:57.250Z,19.41
2018-09-14T11:14:06.092Z,19.52
2018-09-14T11:15:14.737Z,19.45
2018-09-14T11:16:23.384Z,19.48
2018-09-14T11:17:32.028Z,19.48
2018-09-14T11:18:41.434Z,19.57
2018-09-14T11:19:49.952Z,19.64
2018-09-14T11:20:58.601Z,19.72
2018-09-14T11:22:07.518Z,19.7
2018-09-14T11:23:16.165Z,19.67
2018-09-14T11:24:24.853Z,19.7
2018-09-14T11:25:33.510Z,19.74
2018-09-14T11:26:42.105Z,19.66
2018-09-14T11:27:50.781Z,19.48
2018-09-14T11:28:59.395Z,19.26
2018-09-14T11:30:08.041Z,19.16
2018-09-14T11:31:16.698Z,19.17
2018-09-14T11:32:25.825Z,18.94
2018-09-14T11:33:34.432Z,18.71
2018-09-14T11:34:43.336Z,18.66
2018-09-14T11:35:51.990Z,18.73
2018-09-14T11:37:00.636Z,18.6
2018-09-14T11:38:09.363Z,18.67
2018-09-14T11:39:18.244Z,18.6
2018-09-14T11:40:26.891Z,18.55
2018-09-14T11:41:35.540Z,18.64
2018-09-14T11:42:44.189Z,18.82
2018-09-14T11:43:53.106Z,18.98
2018-09-14T11:45:01.756Z,19.09
2018-09-14T11:46:10.500Z,19.12
2018-09-14T11:47:19.049Z,19.12
2018-09-14T11:48:27.705Z,19.12
2018-09-14T11:49:36.341Z,19.16
2018-09-14T11:50:45.003Z,19.34
2018-09-14T11:51:53.648Z,19.45
2018-09-14T11:53:02.302Z,19.47
2018-09-14T11:54:11.037Z,19.62
2018-09-14T11:55:19.584Z,19.62
2018-09-14T11:56:28.236Z,19.52
2018-09-14T11:57:37.177Z,19.47
2018-09-14T11:58:45.827Z,19.35
2018-09-14T11:59:54.727Z,19.23
2018-09-14T12:01:03.378Z,19.15
2018-09-14T12:02:12.020Z,19.07
2018-09-14T12:03:20.677Z,18.98
2018-09-14T12:04:29.317Z,18.94
2018-09-14T12:05:37.966Z,18.98
2018-09-14T12:06:46.870Z,18.82
2018-09-14T12:07:55.526Z,18.91
2018-09-14T12:09:04.432Z,18.79
2018-09-14T12:10:13.610Z,18.73
2018-09-14T12:11:22.253Z,18.76
2018-09-14T12:12:30.909Z,18.85
2018-09-14T12:13:39.687Z,18.92
2018-09-14T12:14:48.597Z,18.82
2018-09-14T12:15:57.522Z,18.85
2018-09-14T12:17:06.168Z,18.76
2018-09-14T12:18:14.824Z,18.85
2018-09-14T12:19:23.465Z,18.82
2018-09-14T12:20:32.117Z,18.96
2018-09-14T12:21:40.755Z,18.88
2018-09-14T12:22:49.411Z,19
2018-09-14T12:23:58.054Z,19.04
2018-09-14T12:25:07.229Z,19.19
2018-09-14T12:26:15.866Z,19.09
2018-09-14T12:27:24.523Z,19.23
2018-09-14T12:28:33.437Z,19.23
2018-09-14T12:29:42.085Z,19.3
2018-09-14T12:30:50.988Z,19.35
2018-09-14T12:31:59.641Z,19.34
2018-09-14T12:33:08.295Z,19.38
2018-09-14T12:34:16.942Z,19.53
2018-09-14T12:35:25.862Z,19.47
2018-09-14T12:36:34.500Z,19.62
2018-09-14T12:37:43.153Z,19.6
2018-09-14T12:38:51.796Z,19.79
2018-09-14T12:40:00.461Z,19.79
2018-09-14T12:41:09.370Z,19.93
2018-09-14T12:42:18.021Z,20.02
2018-09-14T12:43:26.665Z,20.1
2018-09-14T12:44:35.321Z,20.15
2018-09-14T12:45:43.963Z,20.22
2018-09-14T12:46:52.668Z,20.22
2018-09-14T12:48:01.353Z,20.27
2018-09-14T12:49:09.966Z,20.21
2018-09-14T12:50:18.618Z,20.3
2018-09-14T12:51:27.794Z,20.29
2018-09-14T12:52:36.435Z,20.36
2018-09-14T12:53:45.613Z,20.48
2018-09-14T12:54:54.522Z,20.44
2018-09-14T12:56:03.185Z,20.37
2018-09-14T12:57:11.818Z,20.34
2018-09-14T12:58:20.725Z,20.26
2018-09-14T12:59:29.376Z,20.24
2018-09-14T13:00:38.027Z,20.17
2018-09-14T13:01:46.676Z,20.03
2018-09-14T13:02:55.320Z,19.96
2018-09-14T13:04:03.972Z,19.89
2018-09-14T13:05:12.620Z,19.74
2018-09-14T13:06:21.275Z,19.64
2018-09-14T13:07:30.177Z,19.64
2018-09-14T13:08:38.826Z,19.63
2018-09-14T13:09:47.492Z,19.67
2018-09-14T13:10:56.404Z,19.67
2018-09-14T13:12:05.317Z,19.78
2018-09-14T13:13:13.958Z,19.89
2018-09-14T13:14:22.654Z,19.99
2018-09-14T13:15:31.560Z,20.12
2018-09-14T13:16:40.210Z,20.19
2018-09-14T13:17:48.875Z,20.18
2018-09-14T13:18:57.532Z,20.07
2018-09-14T13:20:06.180Z,20.17
2018-09-14T13:21:14.832Z,20.1
2018-09-14T13:22:23.474Z,20.08
2018-09-14T13:23:32.128Z,20.11
2018-09-14T13:24:40.776Z,20.12
2018-09-14T13:25:49.700Z,20.19
2018-09-14T13:26:58.343Z,20.19
2018-09-14T13:28:07.421Z,20.18
2018-09-14T13:29:16.020Z,20.29
2018-09-14T13:30:24.682Z,20.21
2018-09-14T13:31:33.326Z,20.24
2018-09-14T13:32:41.971Z,20.19
2018-09-14T13:33:50.647Z,20.24
2018-09-14T13:34:59.262Z,20.29
2018-09-14T13:36:07.915Z,20.32
2018-09-14T13:37:16.565Z,20.21
2018-09-14T13:38:25.205Z,20.21
2018-09-14T13:39:33.848Z,20.22
2018-09-14T13:40:42.507Z,20.3
2018-09-14T13:41:51.150Z,20.22
2018-09-14T13:42:59.807Z,20.26
2018-09-14T13:44:08.712Z,20.18
2018-09-14T13:45:17.364Z,20.15
2018-09-14T13:46:26.024Z,20.17
2018-09-14T13:47:34.674Z,20.17
2018-09-14T13:48:43.323Z,20.14
2018-09-14T13:49:51.961Z,20.12
2018-09-14T13:51:00.616Z,20.08
2018-09-14T13:52:09.261Z,20.08
2018-09-14T13:53:17.916Z,20.11
2018-09-14T13:54:27.095Z,20.14
2018-09-14T13:55:35.747Z,20.04
2018-09-14T13:56:44.389Z,20.03
2018-09-14T13:57:53.041Z,20.08
2018-09-14T13:59:01.680Z,20.12
2018-09-14T14:00:10.331Z,20.11
2018-09-14T14:01:19.101Z,20.08
2018-09-14T14:02:27.633Z,20.15
2018-09-14T14:03:36.279Z,20.15
2018-09-14T14:04:44.922Z,20.17
2018-09-14T14:05:53.569Z,20.14
2018-09-14T14:07:02.476Z,20.1
2018-09-14T14:08:11.399Z,20.19
2018-09-14T14:09:20.044Z,20.19
2018-09-14T14:10:28.695Z,20.17
2018-09-14T14:11:37.604Z,20.1
2018-09-14T14:12:46.262Z,20.04
2018-09-14T14:13:54.903Z,20.04
2018-09-14T14:15:03.561Z,20.02
2018-09-14T14:16:12.455Z,20.04
2018-09-14T14:17:21.180Z,20.12
2018-09-14T14:18:30.025Z,20.12
2018-09-14T14:19:38.677Z,20
2018-09-14T14:20:47.315Z,20.04
2018-09-14T14:21:55.970Z,20.02
2018-09-14T14:23:04.968Z,20.02
2018-09-14T14:24:13.534Z,20.04
2018-09-14T14:25:22.184Z,20.07
2018-09-14T14:26:30.824Z,20.04
2018-09-14T14:27:39.480Z,20.02
2018-09-14T14:28:48.123Z,20
2018-09-14T14:29:56.778Z,20.08
2018-09-14T14:31:05.416Z,20.02
2018-09-14T14:32:14.332Z,20.08
2018-09-14T14:33:23.235Z,20.1
2018-09-14T14:34:31.892Z,20.08
2018-09-14T14:35:40.530Z,20.03
2018-09-14T14:36:49.182Z,20.14
2018-09-14T14:37:57.826Z,20.02
2018-09-14T14:39:06.482Z,20.04
2018-09-14T14:40:15.132Z,19.99
2018-09-14T14:41:23.910Z,19.94
2018-09-14T14:42:33.717Z,19.89
2018-09-14T14:43:42.372Z,19.85
2018-09-14T14:44:51.006Z,19.92
2018-09-14T14:45:59.669Z,19.77
2018-09-14T14:47:08.845Z,19.75
2018-09-14T14:48:17.500Z,19.75
2018-09-14T14:49:26.504Z,19.81
2018-09-14T14:50:35.111Z,19.64
2018-09-14T14:51:44.024Z,19.67
2018-09-14T14:52:52.681Z,19.62
2018-09-14T14:54:01.319Z,19.6
2018-09-14T14:55:09.967Z,19.7
2018-09-14T14:56:18.611Z,19.64
2018-09-14T14:57:27.541Z,19.74
2018-09-14T14:58:36.189Z,19.75
2018-09-14T14:59:44.889Z,19.82
2018-09-14T15:00:53.480Z,20